MDT,Max TemperatureF,Mean TemperatureF,Min TemperatureF,Max Dew PointF,MeanDew PointF,Min DewpointF,Max Humidity, Mean Humidity, Min Humidity, Max Sea Level PressureIn, Mean Sea Level PressureIn, Min Sea Level PressureIn, Max VisibilityMiles, Mean VisibilityMiles, Min VisibilityMiles, Max Wind SpeedMPH, Mean Wind SpeedMPH, Max Gust SpeedMPH,PrecipitationIn, CloudCover, Events, WindDirDegrees
2013-7-1,81,68,54,50,46,39,83,55,27,30.22,30.17,30.14,10,10,10,18,7,21,0.00,2,,119
2013-7-2,82,65,48,42,39,34,71,45,18,30.19,30.12,30.04,10,10,10,14,7,20,0.00,1,,145
2013-7-3,87,69,51,43,40,38,59,39,19,30.06,29.93,29.82,10,10,10,23,12,29,0.00,0,,170
2013-7-4,92,75,58,49,43,39,62,39,16,29.86,29.81,29.75,10,10,10,21,11,26,T,0,,169
2013-7-5,100,82,63,55,49,44,60,38,16,29.82,29.68,29.60,10,10,10,29,14,35,0.00,0,,179
2013-7-6,99,82,64,57,53,49,73,46,18,29.76,29.70,29.64,10,10,10,22,7,30,0.00,0,,264
2013-7-7,100,84,68,64,55,48,84,52,20,29.92,29.81,29.75,10,10,10,28,11,36,0.01,1,,226
2013-7-8,100,82,63,65,58,48,100,60,20,30.07,29.87,29.78,10,10,9,32,10,43,0.00,0,Rain,176
2013-7-9,101,85,69,64,56,50,70,45,19,30.06,29.92,29.85,10,10,10,17,8,26,0.01,0,Rain-Thunderstorm,311
2013-7-10,91,79,66,64,59,52,73,56,38,30.18,30.03,29.93,10,10,10,25,13,32,T,1,Rain-Thunderstorm,112
2013-7-11,94,76,58,62,57,55,84,56,28,30.02,29.91,29.81,10,10,10,26,12,35,0.00,0,,180
2013-7-12,102,86,69,60,56,48,70,43,16,29.82,29.77,29.71,10,10,10,26,16,33,0.00,0,,178
2013-7-13,100,82,64,62,58,53,78,51,24,29.89,29.82,29.76,10,10,10,25,8,31,T,0,,231
2013-7-14,83,74,65,65,63,59,84,66,47,30.09,29.96,29.85,10,10,10,17,8,23,T,4,Rain-Thunderstorm,356
2013-7-15,85,70,55,59,53,44,100,63,25,30.25,30.14,30.06,10,8,0,22,9,28,0.00,3,Fog,157
2013-7-16,81,70,59,61,58,55,93,68,42,30.27,30.17,30.07,10,10,10,26,15,35,0.00,4,,159
2013-7-17,86,73,60,61,59,55,97,69,40,30.37,30.22,30.11,10,10,10,28,18,36,0.00,4,,180
2013-7-18,91,78,64,62,58,54,87,58,29,30.09,29.97,29.86,10,10,10,30,17,40,0.00,0,,180
2013-7-19,95,80,64,63,59,53,93,60,26,30.11,29.94,29.86,10,10,10,35,11,44,0.14,3,Rain-Thunderstorm,45
2013-7-20,86,74,61,66,62,58,100,72,43,29.94,29.89,29.81,10,10,10,23,7,29,0.00,0,,154
2013-7-21,88,74,59,65,61,56,90,65,39,30.04,29.86,29.77,10,10,10,23,10,29,0.00,2,,127
2013-7-22,97,83,68,70,62,52,100,62,24,29.91,29.79,29.73,10,8,0,25,15,33,0.00,2,Fog,130
2013-7-23,91,76,60,64,60,57,93,65,36,30.02,29.88,29.73,10,10,10,23,12,30,0.00,1,,91
2013-7-24,88,73,57,63,59,53,100,66,31,30.22,30.09,29.98,10,7,1,24,8,29,0.05,3,Rain-Thunderstorm,142
2013-7-25,85,72,59,64,60,56,97,72,47,30.18,30.03,29.94,10,8,1,23,9,29,0.00,3,Thunderstorm,101
2013-7-26,85,72,58,62,56,52,93,64,34,30.17,30.10,30.05,10,8,3,15,8,21,0.00,0,,103
2013-7-27,76,66,55,57,54,52,86,68,50,30.13,30.03,29.94,10,10,5,28,15,36,0.12,4,Rain-Thunderstorm,106
2013-7-28,62,58,53,61,57,53,100,95,90,30.11,30.00,29.93,10,3,0,17,9,20,0.11,8,Fog-Rain,97
2013-7-29,79,71,62,64,62,61,100,80,60,30.13,29.98,29.91,10,5,0,15,6,18,0.01,7,Fog,107
2013-7-30,88,75,62,64,61,57,100,69,37,30.19,30.10,30.01,10,6,0,24,7,31,0.00,4,Fog-Thunderstorm,229
2013-7-31,93,78,63,67,62,56,93,63,32,30.25,30.11,30.01,10,9,7,28,11,35,T,2,,159